»·PEaware :: N973SE KBFL-KSBP

N973SE :: KBFL-KSBP

FLIGHT INFORMATION

Flight Status: Arrived
Operator: Privately registered:
United States
More flights under this callsign
Pilot: Stig E. (4778)
Aircraft: Unknown
(DA62)
More flights by this aircraft type
Origin: KBFL Meadows
United States
Destination: KSBP San Luis Co Regl
United States
More flights between these airports :: More routes between these airports
Route: FASTO GMN FLW
File this flight plan on PilotEdge
Remarks:
Altitude:
(Current/Filed)
10,500ft
Speed:
(Current/Filed)
165kts
Departed: 09-Aug-18 04:11 AM
Arrived: 09-Aug-18 05:11 AM
Distance/Time
Traveled:
78nm/1:00
Distance/Time
To Go:
Arrived

Flight Plot

Page will automatically refresh every two minutes.

Flight plan parsing failed; only flown route is shown


Map Options




Map Legend


Flown Route
Filed Route
Departure Airport
Arrival Airport
Navaid (VOR, NDB)
Fix

Horizontal Profiles

Position Reports

Time Latitude Longitude Heading Altitude Ground
Speed
09-Aug-18 03:46 35.435704 -119.052043 180 497ft 0kts
09-Aug-18 03:47 35.435704 -119.052043 180 497ft 0kts
09-Aug-18 03:48 35.435704 -119.052043 180 497ft 0kts
09-Aug-18 03:49 35.435704 -119.052043 180 497ft 0kts
09-Aug-18 03:50 35.435704 -119.052043 180 497ft 0kts
09-Aug-18 03:51 35.435704 -119.052043 180 497ft 0kts
09-Aug-18 03:52 35.435704 -119.052043 180 497ft 0kts
09-Aug-18 03:53 35.435704 -119.052043 180 497ft 0kts
09-Aug-18 03:54 35.435704 -119.052043 180 497ft 0kts
09-Aug-18 03:55 35.435704 -119.052043 180 497ft 0kts
09-Aug-18 03:56 35.435704 -119.052043 180 497ft 0kts
09-Aug-18 03:57 35.435704 -119.052043 180 497ft 0kts
09-Aug-18 03:58 35.435704 -119.052043 180 497ft 0kts
09-Aug-18 03:59 35.435704 -119.052043 180 497ft 0kts
09-Aug-18 04:00 35.435704 -119.052043 180 497ft 0kts
09-Aug-18 04:01 35.435704 -119.052043 180 497ft 0kts
09-Aug-18 04:02 35.435704 -119.052043 180 497ft 0kts
09-Aug-18 04:03 35.435704 -119.052043 180 497ft 0kts
09-Aug-18 04:04 35.435704 -119.052043 180 497ft 0kts
09-Aug-18 04:05 35.435704 -119.052043 180 497ft 0kts
09-Aug-18 04:06 35.435704 -119.052043 180 497ft 0kts
09-Aug-18 04:07 35.435704 -119.052043 179 497ft 0kts
09-Aug-18 04:08 35.434890 -119.052699 271 497ft 15kts
09-Aug-18 04:09 35.434405 -119.054442 206 497ft 7kts
09-Aug-18 04:10 35.430597 -119.050011 134 497ft 26kts
09-Aug-18 04:11 35.425504 -119.044835 263 497ft 12kts
09-Aug-18 04:12 35.434427 -119.057027 315 695ft 93kts
09-Aug-18 04:13 35.454808 -119.076750 17 1843ft 95kts
09-Aug-18 04:14 35.461003 -119.052204 130 3077ft 96kts
09-Aug-18 04:15 35.442295 -119.029113 132 4294ft 97kts
09-Aug-18 04:16 35.421544 -119.007875 140 5516ft 98kts
09-Aug-18 04:17 35.399860 -118.987649 140 6724ft 99kts
09-Aug-18 04:18 35.378251 -118.967044 140 7916ft 99kts
09-Aug-18 04:19 35.356706 -118.945857 140 9089ft 100kts
09-Aug-18 04:20 35.335188 -118.923900 140 10243ft 102kts
09-Aug-18 04:21 35.308173 -118.895836 140 10507ft 152kts
09-Aug-18 04:22 35.275107 -118.859836 137 10500ft 163kts
09-Aug-18 04:23 35.241478 -118.823517 171 10494ft 164kts
09-Aug-18 04:24 35.195999 -118.825765 182 10499ft 165kts
09-Aug-18 04:25 35.150307 -118.829561 182 10546ft 164kts
09-Aug-18 04:26 35.105071 -118.833566 182 10594ft 163kts
09-Aug-18 04:27 35.059648 -118.837675 182 10641ft 163kts
09-Aug-18 04:28 35.014150 -118.841835 182 10665ft 165kts
09-Aug-18 04:29 34.968128 -118.846046 181 10662ft 167kts
09-Aug-18 04:30 34.921418 -118.850300 181 10658ft 170kts
09-Aug-18 04:31 34.874235 -118.854578 181 10655ft 172kts
09-Aug-18 04:32 34.826200 -118.858943 181 10653ft 173kts
09-Aug-18 04:33 34.778204 -118.863276 181 10651ft 173kts
09-Aug-18 04:34 34.730277 -118.867630 181 10649ft 173kts
09-Aug-18 04:35 34.689040 -118.886671 260 10614ft 179kts
09-Aug-18 04:36 34.714049 -118.936881 304 10597ft 177kts
09-Aug-18 04:37 34.739567 -118.988245 298 10562ft 177kts
09-Aug-18 04:38 34.762630 -119.041378 296 10518ft 177kts
09-Aug-18 04:39 34.784574 -119.094379 296 10511ft 175kts
09-Aug-18 04:40 34.806193 -119.147478 296 10508ft 175kts
09-Aug-18 04:41 34.827667 -119.200573 296 10506ft 175kts
09-Aug-18 04:42 34.849069 -119.253663 296 10503ft 175kts
09-Aug-18 04:43 34.870538 -119.307031 296 10500ft 175kts
09-Aug-18 04:44 34.891906 -119.360238 296 10497ft 175kts
09-Aug-18 04:45 34.913355 -119.413728 295 10496ft 175kts
09-Aug-18 04:46 34.934715 -119.467083 295 10495ft 175kts
09-Aug-18 04:47 34.956168 -119.520760 295 10495ft 176kts
09-Aug-18 04:48 34.977319 -119.573823 295 9957ft 174kts
09-Aug-18 04:49 34.998456 -119.626923 295 9269ft 173kts
09-Aug-18 04:50 35.019079 -119.679394 294 8604ft 171kts
09-Aug-18 04:51 35.038808 -119.729595 294 8052ft 162kts
09-Aug-18 04:52 35.058248 -119.778835 294 7416ft 160kts
09-Aug-18 04:53 35.077554 -119.827646 295 6790ft 159kts
09-Aug-18 04:54 35.090835 -119.876977 281 6504ft 142kts
09-Aug-18 04:55 35.097662 -119.922293 275 6507ft 132kts
09-Aug-18 04:56 35.101547 -119.972055 275 6511ft 158kts
09-Aug-18 04:57 35.105962 -120.026383 275 6509ft 162kts
09-Aug-18 04:58 35.110407 -120.081094 275 6327ft 161kts
09-Aug-18 04:59 35.114799 -120.135584 275 5667ft 161kts
09-Aug-18 05:00 35.119154 -120.189931 275 5036ft 160kts
09-Aug-18 05:01 35.122730 -120.234807 275 4541ft 158kts
09-Aug-18 05:02 35.127252 -120.291901 275 4506ft 136kts
09-Aug-18 05:03 35.131167 -120.341767 275 4352ft 151kts
09-Aug-18 05:04 35.134527 -120.384589 275 3846ft 151kts
09-Aug-18 05:05 35.138516 -120.435711 275 3268ft 150kts
09-Aug-18 05:06 35.149192 -120.489133 304 2807ft 130kts
09-Aug-18 05:07 35.166598 -120.519771 305 1752ft 125kts
09-Aug-18 05:08 35.183357 -120.548515 305 1696ft 92kts
09-Aug-18 05:09 35.198028 -120.573534 307 1673ft 90kts
09-Aug-18 05:10 35.213471 -120.598501 302 1250ft 93kts
09-Aug-18 05:11 35.228122 -120.624466 303 499ft 91kts
09-Aug-18 05:12 35.239176 -120.644016 313 177ft 24kts
09-Aug-18 05:13 35.238305 -120.640736 116 188ft 14kts
09-Aug-18 05:14 35.238781 -120.639070 269 193ft 0kts
09-Aug-18 05:15 35.238781 -120.639070 269 193ft 0kts
09-Aug-18 05:16 35.238781 -120.639070 269 193ft 0kts
09-Aug-18 05:17 35.238781 -120.639070 269 193ft 0kts
09-Aug-18 05:18 35.238781 -120.639070 269 193ft 0kts
09-Aug-18 05:19 35.238781 -120.639070 269 193ft 0kts
09-Aug-18 05:20 35.238781 -120.639070 269 193ft 0kts
09-Aug-18 05:21 35.238781 -120.639070 269 193ft 0kts
09-Aug-18 05:22 35.238781 -120.639070 269 193ft 0kts

Navigation Log

Ident Type
Flight plan parsing failed, navigation log unavailable